Time;durP1;ratioP1;P1;durP2;ratioP2;P2;SDS_P1;SDS_P2;PMS_P1;PMS_P2;Temp;Humidity;BMP_temperature;BMP_pressure;BME280_temperature;BME280_humidity;BME280_pressure;Samples;Min_cycle;Max_cycle;Signal;HPM_P1;HPM_P2
2022/12/02 00:01:47;;;;;;;38.20;20.58;;;3.40;99.90;;;;;;5127683;27;20104;-80
2022/12/02 00:04:25;;;;;;;43.28;20.25;;;3.40;99.90;;;;;;5109447;27;20039;-81
2022/12/02 00:06:52;;;;;;;37.38;19.42;;;3.40;99.90;;;;;;5109878;27;20054;-81
2022/12/02 00:09:33;;;;;;;41.67;20.20;;;3.40;99.90;;;;;;5127185;27;20390;-81
2022/12/02 00:12:10;;;;;;;39.28;21.00;;;3.50;99.90;;;;;;5126933;27;20146;-81
2022/12/02 00:14:35;;;;;;;45.45;19.52;;;3.40;99.90;;;;;;5127300;27;20051;-81
2022/12/02 00:17:01;;;;;;;42.35;20.40;;;3.50;99.90;;;;;;5108885;27;20084;-81
2022/12/02 00:19:27;;;;;;;38.20;19.67;;;3.80;99.90;;;;;;5093357;27;20047;-81
2022/12/02 00:21:53;;;;;;;39.42;19.80;;;3.40;99.90;;;;;;5109215;27;20081;-81
2022/12/02 00:24:19;;;;;;;47.55;21.13;;;3.50;99.90;;;;;;5126229;27;20050;-81
2022/12/02 00:26:45;;;;;;;42.80;19.50;;;3.40;99.90;;;;;;5092510;27;20035;-81
2022/12/02 00:29:11;;;;;;;41.00;20.70;;;3.50;99.90;;;;;;5125908;27;20067;-81
2022/12/02 00:31:36;;;;;;;43.38;20.23;;;3.50;99.90;;;;;;5092535;27;20100;-81
2022/12/02 00:34:02;;;;;;;43.97;20.73;;;3.50;99.90;;;;;;5125656;27;20075;-81
2022/12/02 00:36:29;;;;;;;43.47;20.58;;;3.50;99.90;;;;;;5127155;27;20063;-82
2022/12/02 00:38:55;;;;;;;38.03;19.23;;;3.50;99.90;;;;;;5125941;27;20060;-82
2022/12/02 00:41:21;;;;;;;37.10;19.23;;;3.50;99.90;;;;;;5126538;27;20035;-80
2022/12/02 00:46:32;;;;;;;45.53;21.27;;;3.50;99.90;;;;;;5125149;27;20398;-80
2022/12/02 00:49:07;;;;;;;42.97;19.77;;;3.60;99.90;;;;;;5126901;27;20066;-80
2022/12/02 00:51:34;;;;;;;38.75;19.40;;;3.50;99.90;;;;;;5125210;27;20498;-80
2022/12/02 00:54:00;;;;;;;45.00;21.00;;;4.60;99.90;;;;;;5125947;27;20055;-80
2022/12/02 00:56:26;;;;;;;37.67;19.83;;;3.50;99.90;;;;;;5108537;27;20031;-81
2022/12/02 00:58:52;;;;;;;41.85;19.90;;;3.50;99.90;;;;;;5107928;27;20103;-80
2022/12/02 01:01:17;;;;;;;42.38;18.73;;;4.70;99.90;;;;;;5126211;27;20058;-81
2022/12/02 01:03:43;;;;;;;37.53;20.13;;;3.50;99.90;;;;;;5125233;27;20140;-80
2022/12/02 01:06:09;;;;;;;43.15;21.50;;;3.50;99.90;;;;;;5109693;27;20035;-81
2022/12/02 01:08:35;;;;;;;37.10;18.77;;;3.50;99.90;;;;;;5127140;27;20524;-81
2022/12/02 01:11:00;;;;;;;38.42;18.13;;;4.00;99.90;;;;;;5126545;27;20088;-81
2022/12/02 01:13:27;;;;;;;37.33;18.15;;;3.50;99.90;;;;;;5125224;27;20057;-81
2022/12/02 01:15:53;;;;;;;42.35;18.88;;;3.50;99.90;;;;;;5125280;27;20073;-80
2022/12/02 01:18:19;;;;;;;36.67;17.85;;;3.50;99.90;;;;;;5109047;27;20389;-80
2022/12/02 01:20:45;;;;;;;43.00;18.92;;;3.50;99.90;;;;;;5124518;27;20039;-81
2022/12/02 01:23:11;;;;;;;37.63;17.85;;;3.50;99.90;;;;;;5125908;27;20047;-81
2022/12/02 01:25:37;;;;;;;41.70;20.13;;;3.50;99.90;;;;;;5125239;27;20589;-81
2022/12/02 01:28:03;;;;;;;41.92;20.42;;;3.50;99.90;;;;;;5126285;27;20050;-80
2022/12/02 01:30:28;;;;;;;40.92;18.88;;;3.50;99.90;;;;;;5108363;27;20408;-80
2022/12/02 01:32:54;;;;;;;41.75;17.75;;;3.50;99.90;;;;;;5125949;27;20035;-81
2022/12/02 01:35:20;;;;;;;41.47;18.65;;;3.50;99.90;;;;;;5108092;27;20455;-81
2022/12/02 01:37:46;;;;;;;38.08;16.95;;;3.50;99.90;;;;;;5125254;27;20047;-81
2022/12/02 01:40:13;;;;;;;37.35;17.83;;;4.30;99.90;;;;;;5108731;27;20043;-81
2022/12/02 01:42:39;;;;;;;37.22;17.85;;;3.40;99.90;;;;;;5107999;27;20046;-80
2022/12/02 01:45:06;;;;;;;36.60;16.52;;;3.40;99.90;;;;;;5109304;27;20036;-80
2022/12/02 01:47:33;;;;;;;34.58;15.82;;;3.40;99.90;;;;;;5107996;27;20039;-80
2022/12/02 01:49:58;;;;;;;38.78;17.88;;;3.40;99.90;;;;;;5125561;27;20039;-80
2022/12/02 01:52:24;;;;;;;34.08;16.42;;;3.40;99.90;;;;;;5128850;27;20047;-80
2022/12/02 01:54:51;;;;;;;33.90;16.38;;;4.20;99.90;;;;;;5128726;27;20078;-80
2022/12/02 01:57:20;;;;;;;37.30;17.20;;;3.40;99.90;;;;;;5112330;27;20106;-80
2022/12/02 01:59:46;;;;;;;36.83;17.02;;;3.40;99.90;;;;;;5110597;27;20043;-81
2022/12/02 02:02:34;;;;;;;39.58;18.25;;;3.40;99.90;;;;;;5110065;27;20081;-80
2022/12/02 02:05:10;;;;;;;42.33;17.95;;;3.90;99.90;;;;;;5125452;27;20058;-80
2022/12/02 02:07:38;;;;;;;39.08;18.38;;;3.30;99.90;;;;;;5125115;27;20093;-80
2022/12/02 02:10:05;;;;;;;44.72;18.63;;;3.40;99.90;;;;;;5108048;27;20084;-80
2022/12/02 02:12:31;;;;;;;39.65;18.75;;;3.30;99.90;;;;;;5107060;27;20047;-80
2022/12/02 02:14:57;;;;;;;48.97;20.27;;;3.30;99.90;;;;;;5108352;28;20082;-81
2022/12/02 02:17:23;;;;;;;45.30;19.20;;;3.30;99.90;;;;;;5124246;27;20619;-81
2022/12/02 02:19:49;;;;;;;48.80;19.48;;;3.40;99.90;;;;;;5108424;27;20047;-80
2022/12/02 02:22:28;;;;;;;45.72;19.90;;;3.30;99.90;;;;;;5107092;28;20081;-81
2022/12/02 02:24:54;;;;;;;43.58;20.08;;;4.00;99.90;;;;;;5124451;27;20047;-81
2022/12/02 02:27:19;;;;;;;54.60;20.23;;;3.30;99.90;;;;;;5125077;27;20054;-80
2022/12/02 02:29:45;;;;;;;47.83;19.58;;;3.40;99.90;;;;;;5107418;28;20098;-81
2022/12/02 02:32:11;;;;;;;44.58;20.25;;;3.40;99.90;;;;;;5108291;28;20039;-81
2022/12/02 02:34:37;;;;;;;43.40;19.38;;;3.30;99.90;;;;;;5124607;28;20066;-81
2022/12/02 02:37:03;;;;;;;48.33;21.25;;;3.30;99.90;;;;;;5091145;28;20597;-80
2022/12/02 02:39:29;;;;;;;50.53;22.30;;;4.40;99.90;;;;;;5124380;28;20043;-80
2022/12/02 02:41:56;;;;;;;47.30;21.02;;;3.40;99.90;;;;;;5107110;28;20055;-81
2022/12/02 02:44:23;;;;;;;48.63;20.40;;;3.40;99.90;;;;;;5107240;28;20053;-81
2022/12/02 02:46:48;;;;;;;42.95;20.77;;;3.40;99.90;;;;;;5106511;28;20136;-81
2022/12/02 02:49:14;;;;;;;48.25;21.30;;;3.30;99.90;;;;;;5124937;28;20071;-81
2022/12/02 02:51:40;;;;;;;43.67;20.10;;;3.40;99.90;;;;;;5134873;27;20082;-82
2022/12/02 02:54:06;;;;;;;37.97;18.48;;;3.30;99.90;;;;;;5128110;27;20057;-82
2022/12/02 02:56:32;;;;;;;45.28;20.20;;;3.30;99.90;;;;;;5094219;27;20038;-81
2022/12/02 02:58:58;;;;;;;37.53;19.00;;;3.50;99.90;;;;;;5110457;27;20058;-81
2022/12/02 03:01:31;;;;;;;38.20;17.38;;;3.30;99.90;;;;;;5127758;27;20091;-82
2022/12/02 03:04:03;;;;;;;39.65;17.35;;;3.30;99.90;;;;;;5127112;27;20505;-82
2022/12/02 03:06:31;;;;;;;32.10;14.50;;;3.30;99.90;;;;;;5128122;27;20493;-82
2022/12/02 03:08:57;;;;;;;40.08;16.70;;;3.30;99.90;;;;;;5110226;27;20473;-81
2022/12/02 03:11:24;;;;;;;35.42;15.93;;;3.20;99.90;;;;;;5114388;27;20045;-82
2022/12/02 03:13:51;;;;;;;35.45;16.27;;;3.20;99.90;;;;;;5114261;27;20042;-82
2022/12/02 03:16:20;;;;;;;36.95;16.27;;;3.20;99.90;;;;;;5097840;27;20395;-82
2022/12/02 03:18:47;;;;;;;39.25;17.15;;;3.30;99.90;;;;;;5131655;27;20102;-81
2022/12/02 03:21:17;;;;;;;37.88;16.85;;;3.10;99.90;;;;;;5113454;27;20537;-82
2022/12/02 03:23:45;;;;;;;40.58;16.40;;;3.10;99.90;;;;;;5132272;27;20046;-81
2022/12/02 03:26:12;;;;;;;39.08;16.48;;;3.10;99.90;;;;;;5113738;27;20114;-82
2022/12/02 03:28:38;;;;;;;36.33;16.67;;;3.00;99.90;;;;;;5114409;27;20042;-82
2022/12/02 03:31:04;;;;;;;38.45;18.15;;;3.00;99.90;;;;;;5113764;27;20047;-81
2022/12/02 03:33:31;;;;;;;41.17;17.00;;;3.00;99.90;;;;;;5130758;27;20035;-82
2022/12/02 03:35:57;;;;;;;34.42;15.68;;;4.20;99.90;;;;;;5097692;27;20046;-81
2022/12/02 03:38:24;;;;;;;40.17;17.67;;;3.00;99.90;;;;;;5097139;27;20496;-81
2022/12/02 03:40:50;;;;;;;37.00;18.33;;;2.90;99.90;;;;;;5132007;27;20050;-82
2022/12/02 03:43:15;;;;;;;37.33;17.38;;;2.90;99.90;;;;;;5113509;27;20224;-82
2022/12/02 03:45:41;;;;;;;36.45;17.55;;;2.90;99.90;;;;;;5114142;27;20035;-82
2022/12/02 03:48:08;;;;;;;38.70;17.33;;;2.90;99.90;;;;;;5113614;27;20046;-82
2022/12/02 03:50:34;;;;;;;42.28;19.50;;;2.90;99.90;;;;;;5130382;27;20047;-82
2022/12/02 03:52:59;;;;;;;40.70;18.73;;;2.90;99.90;;;;;;5113842;27;20050;-81
2022/12/02 03:55:25;;;;;;;41.10;18.67;;;2.90;99.90;;;;;;5096045;27;20050;-82
2022/12/02 03:57:51;;;;;;;42.28;17.88;;;2.90;99.90;;;;;;5130983;27;20046;-82
2022/12/02 04:00:17;;;;;;;40.10;17.25;;;3.80;99.90;;;;;;5112983;27;20098;-82
2022/12/02 04:02:43;;;;;;;41.67;18.30;;;2.90;99.90;;;;;;5114906;27;20142;-81
2022/12/02 04:05:09;;;;;;;39.42;17.15;;;2.90;99.90;;;;;;5112973;27;20580;-81
2022/12/02 04:07:35;;;;;;;40.08;18.83;;;2.90;99.90;;;;;;5131290;27;20058;-82
2022/12/02 04:10:01;;;;;;;44.45;18.08;;;4.00;99.90;;;;;;5130377;27;20474;-82
2022/12/02 04:12:26;;;;;;;38.63;17.60;;;2.90;99.90;;;;;;5113170;27;20046;-81
2022/12/02 04:14:52;;;;;;;42.85;18.33;;;4.10;99.90;;;;;;5113446;27;20039;-82
2022/12/02 04:17:18;;;;;;;49.78;20.10;;;2.90;99.90;;;;;;5129735;27;20149;-82
2022/12/02 04:19:43;;;;;;;42.55;18.23;;;3.00;99.90;;;;;;5096691;27;20168;-82
2022/12/02 04:22:09;;;;;;;38.78;18.65;;;2.90;99.90;;;;;;5112051;27;20043;-82
2022/12/02 04:24:34;;;;;;;45.63;19.50;;;3.00;99.90;;;;;;5113379;27;20109;-82
2022/12/02 04:27:00;;;;;;;45.13;21.25;;;2.90;99.90;;;;;;5130473;27;20395;-81
2022/12/02 04:29:26;;;;;;;43.58;19.65;;;3.60;99.90;;;;;;5095710;27;20507;-82
2022/12/02 04:31:51;;;;;;;42.70;19.83;;;3.00;99.90;;;;;;5130200;27;20074;-82
2022/12/02 04:34:17;;;;;;;45.05;19.17;;;3.00;99.90;;;;;;5129296;27;20053;-82
2022/12/02 04:36:43;;;;;;;46.22;19.45;;;3.00;99.90;;;;;;5096329;27;20039;-82
2022/12/02 04:39:08;;;;;;;40.75;19.80;;;3.00;99.90;;;;;;5112780;27;20061;-82
2022/12/02 04:41:34;;;;;;;46.05;19.67;;;3.00;99.90;;;;;;5096009;27;20105;-82
2022/12/02 04:43:59;;;;;;;45.35;20.10;;;3.00;99.90;;;;;;5112406;27;20115;-82
2022/12/02 04:46:25;;;;;;;46.10;20.48;;;2.90;99.90;;;;;;5095541;27;20450;-82
2022/12/02 04:48:51;;;;;;;44.83;18.27;;;3.00;99.90;;;;;;5113021;27;20050;-81
2022/12/02 04:51:16;;;;;;;42.03;18.10;;;3.00;99.90;;;;;;5111902;27;20043;-81
2022/12/02 04:53:42;;;;;;;50.88;21.05;;;3.00;99.90;;;;;;5096512;27;20049;-81
2022/12/02 04:56:08;;;;;;;40.65;20.20;;;3.00;99.90;;;;;;5129337;27;20535;-82
2022/12/02 04:58:33;;;;;;;42.35;18.80;;;3.00;99.90;;;;;;5095849;27;20039;-82
2022/12/02 05:00:59;;;;;;;46.38;18.50;;;2.90;99.90;;;;;;5112356;27;20075;-81
2022/12/02 05:03:25;;;;;;;41.97;19.15;;;2.90;99.90;;;;;;5095467;27;20116;-81
2022/12/02 05:05:50;;;;;;;40.25;19.38;;;2.90;99.90;;;;;;5112810;27;20047;-82
2022/12/02 05:08:16;;;;;;;42.55;19.67;;;3.00;99.90;;;;;;5133662;27;20034;-80
2022/12/02 05:10:41;;;;;;;43.83;19.55;;;2.90;99.90;;;;;;5101034;27;20065;-82
2022/12/02 05:13:07;;;;;;;47.25;19.55;;;2.90;99.90;;;;;;5132047;27;20052;-81
2022/12/02 05:15:33;;;;;;;47.28;19.73;;;2.90;99.90;;;;;;5132180;27;20038;-81
2022/12/02 05:17:58;;;;;;;46.33;18.65;;;3.00;99.90;;;;;;5113329;27;20091;-81
2022/12/02 05:20:24;;;;;;;49.75;20.55;;;2.90;99.90;;;;;;5112964;27;20115;-81
2022/12/02 05:22:49;;;;;;;48.42;20.33;;;3.70;99.90;;;;;;5095394;27;20038;-82
2022/12/02 05:25:15;;;;;;;49.15;21.38;;;2.90;99.90;;;;;;5111540;27;20041;-81
2022/12/02 05:27:41;;;;;;;56.20;21.23;;;2.90;99.90;;;;;;5112228;27;20088;-82
2022/12/02 05:30:07;;;;;;;56.92;22.45;;;2.90;99.90;;;;;;5127760;27;20051;-81
2022/12/02 05:32:33;;;;;;;55.90;22.50;;;2.90;99.90;;;;;;5129413;27;20043;-81
2022/12/02 05:34:59;;;;;;;48.63;20.58;;;3.80;99.90;;;;;;5127301;27;20451;-81
2022/12/02 05:37:24;;;;;;;56.95;22.23;;;2.90;99.90;;;;;;5128894;27;20039;-81
2022/12/02 05:39:54;;;;;;;51.90;22.23;;;3.90;99.90;;;;;;5094700;27;20043;-84
2022/12/02 05:42:19;;;;;;;56.05;22.90;;;3.90;99.90;;;;;;5127777;27;20039;-83
2022/12/02 05:44:45;;;;;;;59.53;22.35;;;3.30;99.90;;;;;;5128424;27;20038;-83
2022/12/02 05:47:13;;;;;;;57.13;23.65;;;4.00;99.90;;;;;;5127943;27;20042;-81
2022/12/02 05:49:40;;;;;;;63.97;24.05;;;2.90;99.90;;;;;;5129083;27;20038;-80
2022/12/02 05:52:22;;;;;;;68.70;25.73;;;2.90;99.90;;;;;;5127864;27;20054;-81
2022/12/02 05:54:50;;;;;;;55.33;20.33;;;2.90;99.90;;;;;;5128358;27;20121;-81
2022/12/02 05:57:18;;;;;;;54.55;21.63;;;2.90;99.90;;;;;;5128434;27;20042;-82
2022/12/02 05:59:44;;;;;;;64.78;22.55;;;2.90;99.90;;;;;;5127925;27;20047;-81
2022/12/02 06:02:32;;;;;;;56.80;23.45;;;3.00;99.90;;;;;;5112108;27;20364;-82
2022/12/02 06:04:58;;;;;;;57.97;21.15;;;2.90;99.90;;;;;;5128055;27;20051;-81
2022/12/02 06:07:24;;;;;;;61.92;23.80;;;2.90;99.90;;;;;;5094843;27;20047;-81
2022/12/02 06:09:52;;;;;;;56.83;23.63;;;3.40;99.90;;;;;;5111196;27;20042;-80
2022/12/02 06:12:19;;;;;;;53.22;21.45;;;2.90;99.90;;;;;;5111151;27;20050;-82
2022/12/02 06:14:53;;;;;;;60.05;22.85;;;3.00;99.90;;;;;;5111801;27;20375;-81
2022/12/02 06:17:19;;;;;;;59.63;21.38;;;2.90;99.90;;;;;;5127631;27;20497;-81
2022/12/02 06:19:52;;;;;;;55.88;22.83;;;2.90;99.90;;;;;;5128427;27;20042;-81
2022/12/02 06:22:22;;;;;;;57.63;23.27;;;2.90;99.90;;;;;;5110317;27;20046;-80
2022/12/02 06:24:48;;;;;;;65.07;22.58;;;2.90;99.90;;;;;;5128012;27;20047;-85
2022/12/02 06:27:17;;;;;;;62.50;21.90;;;3.50;99.90;;;;;;5110841;27;20050;-81
2022/12/02 06:29:49;;;;;;;55.63;22.00;;;2.90;99.90;;;;;;5128097;27;20114;-80
2022/12/02 06:32:20;;;;;;;54.10;22.95;;;3.40;99.90;;;;;;5111085;27;20043;-81
2022/12/02 06:34:49;;;;;;;52.47;20.52;;;2.90;99.90;;;;;;5127118;27;20049;-81
2022/12/02 06:37:23;;;;;;;64.22;24.65;;;3.00;99.90;;;;;;5128676;27;20035;-82
2022/12/02 06:39:56;;;;;;;63.67;25.38;;;2.90;99.90;;;;;;5127736;27;20133;-82
2022/12/02 06:42:36;;;;;;;;;;;2.90;99.90;;;;;;5129108;27;20398;-82
2022/12/02 06:45:12;;;;;;;62.88;23.77;;;2.90;99.90;;;;;;5129242;27;19944;-79
2022/12/02 06:47:37;;;;;;;60.60;22.70;;;2.90;99.90;;;;;;5132078;27;20047;-79
2022/12/02 06:50:06;;;;;;;51.95;22.30;;;2.90;99.90;;;;;;5132383;27;20378;-79
2022/12/02 06:52:38;;;;;;;60.53;22.55;;;2.90;99.90;;;;;;5131588;27;20134;-84
2022/12/02 06:55:32;;;;;;;37.80;17.25;;;3.00;99.90;;;;;;5115433;27;20404;-86
2022/12/02 06:58:15;;;;;;;60.85;21.67;;;3.00;99.90;;;;;;5129059;27;20054;-81
2022/12/02 07:00:42;;;;;;;56.63;21.58;;;3.00;99.90;;;;;;5131772;27;20042;-81
2022/12/02 07:03:30;;;;;;;56.47;22.45;;;3.00;99.90;;;;;;5115398;27;20405;-81
2022/12/02 07:06:22;;;;;;;55.38;22.45;;;4.00;99.90;;;;;;5132427;27;20099;-81
2022/12/02 07:08:48;;;;;;;57.80;22.85;;;3.00;99.90;;;;;;5103207;27;20519;-81
2022/12/02 07:11:49;;;;;;;59.35;21.15;;;3.00;99.90;;;;;;5132432;27;20125;-81
2022/12/02 07:14:48;;;;;;;55.95;22.10;;;3.10;99.90;;;;;;5126459;27;20133;-81
2022/12/02 07:17:34;;;;;;;56.50;21.33;;;3.10;99.90;;;;;;5087340;27;20111;-81
2022/12/02 07:20:06;;;;;;;60.42;23.23;;;3.10;99.90;;;;;;5131842;27;20047;-82
2022/12/02 07:22:39;;;;;;;59.45;22.85;;;3.10;99.90;;;;;;5114500;27;20049;-81
2022/12/02 07:25:08;;;;;;;;;;;3.20;99.90;;;;;;5131915;27;20054;-81
2022/12/02 07:27:39;;;;;;;53.35;21.42;;;3.20;99.90;;;;;;5131571;27;19963;-81
2022/12/02 07:30:34;;;;;;;59.13;23.80;;;3.20;99.90;;;;;;5113904;27;20046;-81
2022/12/02 07:32:59;;;;;;;57.90;22.25;;;3.20;99.90;;;;;;5114875;27;20050;-81
2022/12/02 07:35:26;;;;;;;59.05;23.90;;;3.20;99.90;;;;;;5113932;27;20603;-81
2022/12/02 07:37:52;;;;;;;51.15;21.20;;;3.20;99.90;;;;;;5130810;27;20053;-82
2022/12/02 07:40:18;;;;;;;57.63;21.25;;;3.20;99.90;;;;;;5131168;27;20079;-81
2022/12/02 07:42:44;;;;;;;50.88;20.75;;;3.20;99.90;;;;;;5130961;27;20046;-82
2022/12/02 07:45:12;;;;;;;51.65;20.25;;;3.20;99.90;;;;;;5097287;27;20046;-81
2022/12/02 07:47:38;;;;;;;56.30;21.33;;;3.20;99.90;;;;;;5129966;27;20054;-81
2022/12/02 07:50:04;;;;;;;56.90;22.83;;;3.30;99.90;;;;;;5113815;27;20043;-82
2022/12/02 07:52:30;;;;;;;48.78;20.48;;;3.20;99.90;;;;;;5112859;27;20046;-82
2022/12/02 07:54:56;;;;;;;51.35;21.92;;;4.10;99.90;;;;;;5097258;27;20050;-81
2022/12/02 07:57:22;;;;;;;51.65;20.83;;;3.20;99.90;;;;;;5112475;27;20133;-80
2022/12/02 07:59:48;;;;;;;47.60;22.13;;;3.20;99.90;;;;;;5113253;27;20047;-81
2022/12/02 08:02:13;;;;;;;53.50;22.20;;;3.20;99.90;;;;;;5113605;27;20043;-81
2022/12/02 08:04:39;;;;;;;59.92;23.00;;;3.20;99.90;;;;;;5113314;27;20045;-81
2022/12/02 08:07:05;;;;;;;47.05;20.48;;;3.20;99.90;;;;;;5130861;27;20085;-82
2022/12/02 08:09:31;;;;;;;52.95;22.48;;;3.20;99.90;;;;;;5095896;27;20042;-81
2022/12/02 08:11:56;;;;;;;51.08;22.50;;;3.20;99.90;;;;;;5131120;27;20042;-81
2022/12/02 08:14:22;;;;;;;51.72;20.38;;;3.20;99.90;;;;;;5096998;27;20031;-82
2022/12/02 08:16:48;;;;;;;51.03;19.48;;;3.10;99.90;;;;;;5130172;27;20538;-82
2022/12/02 08:19:13;;;;;;;47.00;19.23;;;3.10;99.90;;;;;;5114425;27;20039;-82
2022/12/02 08:21:39;;;;;;;48.53;18.08;;;3.00;99.90;;;;;;5130106;27;20053;-81
2022/12/02 08:24:06;;;;;;;44.10;18.38;;;3.00;99.90;;;;;;5115007;27;20094;-81
2022/12/02 08:26:31;;;;;;;39.00;16.35;;;3.00;99.90;;;;;;5113945;27;20054;-82
2022/12/02 08:28:57;;;;;;;41.72;17.90;;;2.90;99.90;;;;;;5115163;27;20050;-81
2022/12/02 08:31:23;;;;;;;44.90;18.83;;;2.90;99.90;;;;;;5130875;27;20486;-83
2022/12/02 08:33:50;;;;;;;38.30;17.25;;;3.50;99.90;;;;;;5095876;27;20046;-80
2022/12/02 08:36:15;;;;;;;37.00;17.27;;;2.80;99.90;;;;;;5113595;27;20049;-80
2022/12/02 08:38:42;;;;;;;37.80;17.20;;;2.80;99.90;;;;;;5112752;27;20030;-80
2022/12/02 08:41:08;;;;;;;41.30;18.00;;;2.80;99.90;;;;;;5130651;27;20050;-80
2022/12/02 08:43:33;;;;;;;48.60;18.75;;;2.80;99.90;;;;;;5112017;27;20576;-81
2022/12/02 08:45:59;;;;;;;46.30;20.67;;;2.70;99.90;;;;;;5096107;27;20554;-82
2022/12/02 08:48:25;;;;;;;43.13;18.15;;;2.70;99.90;;;;;;5112482;27;20110;-81
2022/12/02 08:50:50;;;;;;;37.47;17.48;;;2.70;99.90;;;;;;5113107;27;20121;-81
2022/12/02 08:53:16;;;;;;;40.10;16.30;;;3.50;99.90;;;;;;5113564;27;20105;-81
2022/12/02 08:55:42;;;;;;;37.80;17.05;;;2.70;99.90;;;;;;5129636;27;20043;-81
2022/12/02 08:58:08;;;;;;;40.83;18.55;;;2.70;99.90;;;;;;5096658;27;20095;-81
2022/12/02 09:00:33;;;;;;;40.20;18.02;;;2.70;99.90;;;;;;5094851;27;20039;-82
2022/12/02 09:02:59;;;;;;;44.92;19.95;;;2.70;99.90;;;;;;5096929;27;20047;-81
2022/12/02 09:05:25;;;;;;;42.33;17.88;;;2.70;99.90;;;;;;5112230;27;20549;-81
2022/12/02 09:07:51;;;;;;;43.05;17.85;;;2.90;99.90;;;;;;5129880;27;20056;-81
2022/12/02 09:10:17;;;;;;;42.55;16.83;;;2.70;99.90;;;;;;5096221;27;20497;-81
2022/12/02 09:12:42;;;;;;;44.40;17.20;;;2.70;99.90;;;;;;5112998;27;20038;-81
2022/12/02 09:15:08;;;;;;;45.40;18.48;;;2.70;99.90;;;;;;5097021;27;20600;-80
2022/12/02 09:17:34;;;;;;;45.75;16.63;;;2.60;99.90;;;;;;5078881;27;20114;-81
2022/12/02 09:20:00;;;;;;;46.45;17.27;;;2.60;99.90;;;;;;5112344;27;20405;-81
2022/12/02 09:22:26;;;;;;;42.38;16.98;;;2.60;99.90;;;;;;5077991;27;20581;-81
2022/12/02 09:24:52;;;;;;;49.38;18.65;;;2.60;99.90;;;;;;5112003;27;20061;-81
2022/12/02 09:27:17;;;;;;;47.78;17.25;;;2.50;99.90;;;;;;5112176;27;20050;-81
2022/12/02 09:29:43;;;;;;;44.28;17.92;;;2.50;99.90;;;;;;5094775;27;20045;-81
2022/12/02 09:32:09;;;;;;;45.90;16.70;;;2.50;99.90;;;;;;5096174;27;20169;-81
2022/12/02 09:34:34;;;;;;;47.80;17.98;;;2.50;99.90;;;;;;5128530;27;20047;-81
2022/12/02 09:37:00;;;;;;;43.70;19.58;;;2.50;99.90;;;;;;5129939;27;20038;-81
2022/12/02 09:39:26;;;;;;;48.25;17.90;;;2.50;99.90;;;;;;5128393;27;20513;-81
2022/12/02 09:41:51;;;;;;;45.80;17.45;;;2.50;99.90;;;;;;5111828;27;20089;-81
2022/12/02 09:44:17;;;;;;;52.22;20.02;;;2.50;99.90;;;;;;5111743;27;20050;-81
2022/12/02 09:46:43;;;;;;;48.35;18.92;;;2.60;99.90;;;;;;5129435;27;20552;-81
2022/12/02 09:49:09;;;;;;;44.33;18.23;;;2.60;99.90;;;;;;5111940;27;20498;-81
2022/12/02 09:51:35;;;;;;;44.35;18.27;;;2.70;99.90;;;;;;5111483;27;20098;-81
2022/12/02 09:54:02;;;;;;;43.63;16.50;;;2.70;99.90;;;;;;5112703;27;20117;-81
2022/12/02 09:56:29;;;;;;;44.40;18.77;;;2.80;99.90;;;;;;5128164;27;20626;-81
2022/12/02 09:58:55;;;;;;;44.25;16.88;;;3.10;99.90;;;;;;5112720;27;20074;-81
2022/12/02 10:01:23;;;;;;;44.38;19.42;;;3.80;99.90;;;;;;5128118;27;20490;-80
2022/12/02 10:03:50;;;;;;;41.63;17.92;;;2.90;99.90;;;;;;5111304;27;20042;-80
2022/12/02 10:06:27;;;;;;;42.88;18.65;;;3.00;99.90;;;;;;5112057;27;20404;-80
2022/12/02 10:08:56;;;;;;;49.15;18.05;;;3.20;99.90;;;;;;5111069;27;20457;-81
2022/12/02 10:11:31;;;;;;;43.33;17.33;;;3.10;99.90;;;;;;5128647;27;20147;-81
2022/12/02 10:13:58;;;;;;;50.28;21.17;;;3.20;99.90;;;;;;5127921;27;20057;-81
2022/12/02 10:16:27;;;;;;;44.28;18.00;;;3.20;99.90;;;;;;5128134;27;20103;-80
2022/12/02 10:19:00;;;;;;;43.80;19.33;;;3.20;99.90;;;;;;5111414;27;20117;-81
2022/12/02 10:21:26;;;;;;;45.85;20.45;;;3.20;99.90;;;;;;5110426;27;20035;-81
2022/12/02 10:23:58;;;;;;;38.17;17.10;;;3.10;99.90;;;;;;5111417;27;20091;-81
2022/12/02 10:26:24;;;;;;;43.28;19.70;;;3.10;99.90;;;;;;5111035;27;20039;-82
2022/12/02 10:29:02;;;;;;;43.92;19.25;;;3.50;99.90;;;;;;5111386;27;20039;-82
2022/12/02 10:31:28;;;;;;;37.92;16.80;;;3.20;99.90;;;;;;5128825;27;20404;-80
2022/12/02 10:34:03;;;;;;;45.97;19.83;;;3.80;99.90;;;;;;5094272;27;20129;-81
2022/12/02 10:36:30;;;;;;;42.88;19.00;;;3.20;99.90;;;;;;5128027;27;20103;-80
2022/12/02 10:39:15;;;;;;;43.60;19.42;;;3.20;99.90;;;;;;5110315;27;20087;-80
2022/12/02 10:41:40;;;;;;;40.92;19.45;;;3.20;99.90;;;;;;5111022;27;20047;-81
2022/12/02 10:44:14;;;;;;;43.40;20.73;;;3.20;99.90;;;;;;5093265;27;20087;-81
2022/12/02 10:46:39;;;;;;;44.05;20.42;;;3.80;99.90;;;;;;5127418;27;20051;-81
2022/12/02 10:49:27;;;;;;;40.20;19.10;;;3.40;99.90;;;;;;5110435;27;20050;-80
2022/12/02 10:51:54;;;;;;;45.35;20.60;;;3.20;99.90;;;;;;5109610;27;20525;-81
2022/12/02 10:54:31;;;;;;;44.28;21.05;;;3.50;99.90;;;;;;5094085;27;20486;-81
2022/12/02 10:57:02;;;;;;;38.15;19.85;;;3.20;99.90;;;;;;5109635;27;20046;-81
2022/12/02 10:59:29;;;;;;;43.65;21.58;;;3.20;99.90;;;;;;5093883;27;20404;-81
2022/12/02 11:01:55;;;;;;;39.72;20.27;;;3.20;99.90;;;;;;5127696;27;20057;-81
2022/12/02 11:04:21;;;;;;;43.58;22.25;;;3.40;99.90;;;;;;5129286;27;20043;-81
2022/12/02 11:06:48;;;;;;;46.83;21.50;;;3.30;99.90;;;;;;5112352;27;20520;-80
2022/12/02 11:09:25;;;;;;;41.67;21.67;;;3.40;99.90;;;;;;5128439;27;20042;-81
2022/12/02 11:11:51;;;;;;;45.78;22.08;;;3.30;99.90;;;;;;5112410;27;20043;-81
2022/12/02 11:14:39;;;;;;;46.88;23.30;;;3.40;99.90;;;;;;5128751;27;20042;-80
2022/12/02 11:17:10;;;;;;;46.03;22.27;;;3.40;99.90;;;;;;5128505;27;20050;-80
2022/12/02 11:19:36;;;;;;;47.10;23.67;;;3.30;99.90;;;;;;5130211;27;20046;-80
2022/12/02 11:22:03;;;;;;;48.97;24.30;;;3.40;99.90;;;;;;5111977;27;20034;-80
2022/12/02 11:24:28;;;;;;;48.60;24.08;;;3.40;99.90;;;;;;5129884;27;20045;-81
2022/12/02 11:27:03;;;;;;;48.55;25.77;;;3.40;99.90;;;;;;5147023;27;20119;-81
2022/12/02 11:29:34;;;;;;;47.13;25.20;;;3.40;99.90;;;;;;5130031;27;20042;-80
2022/12/02 11:32:20;;;;;;;47.75;24.58;;;3.40;99.90;;;;;;5113701;27;20054;-81
2022/12/02 11:34:55;;;;;;;45.35;24.65;;;3.40;99.90;;;;;;5151429;27;20495;-80
2022/12/02 11:37:33;;;;;;;47.35;23.38;;;3.40;99.90;;;;;;5133743;27;20108;-80
2022/12/02 11:40:03;;;;;;;42.47;23.58;;;3.50;99.90;;;;;;5115001;27;20087;-80
2022/12/02 11:42:34;;;;;;;44.28;23.85;;;3.50;99.90;;;;;;5133375;27;20111;-82
2022/12/02 11:45:38;;;;;;;39.83;22.20;;;3.80;99.90;;;;;;5134061;27;20130;-80
2022/12/02 11:48:13;;;;;;;;;;;3.60;99.90;;;;;;5085665;27;20129;-80
2022/12/02 11:50:39;;;;;;;36.78;20.98;;;3.80;99.90;;;;;;5151862;27;19971;-81
2022/12/02 11:53:16;;;;;;;43.78;22.48;;;3.60;99.90;;;;;;5151108;27;20054;-80
2022/12/02 11:55:45;;;;;;;42.00;22.67;;;3.60;99.90;;;;;;5115963;27;20425;-80
2022/12/02 11:58:27;;;;;;;48.92;23.38;;;3.60;99.90;;;;;;5152165;27;20038;-80
2022/12/02 12:01:21;;;;;;;42.38;22.83;;;3.60;99.90;;;;;;5131990;27;20054;-80
2022/12/02 12:03:49;;;;;;;40.67;21.83;;;3.60;99.90;;;;;;5115310;27;20050;-80
2022/12/02 12:06:17;;;;;;;36.90;21.85;;;3.60;99.90;;;;;;5133210;27;20042;-81
2022/12/02 12:08:55;;;;;;;39.67;21.40;;;3.70;99.90;;;;;;5151026;27;20046;-81
2022/12/02 12:11:30;;;;;;;35.65;19.33;;;3.70;99.90;;;;;;5151892;27;20110;-80
2022/12/02 12:14:11;;;;;;;39.95;22.42;;;3.70;99.90;;;;;;5150667;27;20046;-80
2022/12/02 12:16:39;;;;;;;36.58;21.00;;;3.70;99.90;;;;;;5115045;27;20057;-81
2022/12/02 12:19:26;;;;;;;40.60;22.23;;;3.30;99.90;;;;;;5132219;27;20509;-81
2022/12/02 12:21:54;;;;;;;35.50;20.17;;;3.70;99.90;;;;;;5150633;27;20071;-82
2022/12/02 12:24:20;;;;;;;40.03;19.90;;;3.60;99.90;;;;;;5115604;27;20038;-81
2022/12/02 12:26:45;;;;;;;37.15;19.13;;;4.00;99.90;;;;;;5131914;27;20061;-81
2022/12/02 12:29:11;;;;;;;33.58;19.73;;;3.50;99.90;;;;;;5132862;27;20465;-81
2022/12/02 12:31:37;;;;;;;36.53;17.73;;;3.50;99.90;;;;;;5114410;27;20039;-81
2022/12/02 12:34:03;;;;;;;32.78;18.08;;;3.50;99.90;;;;;;5132023;27;20038;-82
2022/12/02 12:36:29;;;;;;;29.38;16.17;;;3.50;99.90;;;;;;5151281;27;20378;-84
2022/12/02 12:38:55;;;;;;;32.85;17.33;;;3.50;99.90;;;;;;5132170;27;20669;-81
2022/12/02 12:41:21;;;;;;;33.75;17.08;;;4.10;99.90;;;;;;5132434;27;20074;-81
2022/12/02 12:43:46;;;;;;;30.70;16.25;;;3.40;99.90;;;;;;5130218;27;20142;-81
2022/12/02 12:46:13;;;;;;;31.30;17.67;;;3.40;99.90;;;;;;5150118;27;20450;-81
2022/12/02 12:48:39;;;;;;;28.60;15.00;;;3.30;99.90;;;;;;5130933;27;20043;-82